Time;durP1;ratioP1;P1;durP2;ratioP2;P2;SDS_P1;SDS_P2;PMS_P1;PMS_P2;Temp;Humidity;BMP_temperature;BMP_pressure;BME280_temperature;BME280_humidity;BME280_pressure;Samples;Min_cycle;Max_cycle;Signal;HPM_P1;HPM_P2
2022/12/01 00:01:31;;;;;;;38.17;21.53;;;;;;;;;;5079815;28;20455;-72
2022/12/01 00:04:01;;;;;;;49.10;26.17;;;;;;;;;;5079526;28;20460;-71
2022/12/01 00:06:35;;;;;;;44.63;25.37;;;;;;;;;;5079006;28;20539;-71
2022/12/01 00:11:55;;;;;;;48.37;26.53;;;;;;;;;;5078723;28;20449;-72
2022/12/01 00:14:22;;;;;;;53.87;26.47;;;;;;;;;;5078715;28;20456;-73
2022/12/01 00:16:50;;;;;;;50.70;27.70;;;;;;;;;;5079181;28;20479;-72
2022/12/01 00:19:33;;;;;;;54.43;26.07;;;;;;;;;;5090627;28;20536;-72
2022/12/01 00:22:00;;;;;;;48.17;27.80;;;;;;;;;;5098824;28;20515;-72
2022/12/01 00:24:28;;;;;;;47.90;26.73;;;;;;;;;;5099754;28;20562;-72
2022/12/01 00:27:07;;;;;;;45.10;26.40;;;;;;;;;;5089460;28;20740;-72
2022/12/01 00:29:34;;;;;;;53.20;25.80;;;;;;;;;;5078875;28;20882;-72
2022/12/01 00:32:02;;;;;;;47.40;26.97;;;;;;;;;;5078173;28;20452;-72
2022/12/01 00:34:29;;;;;;;46.57;25.10;;;;;;;;;;5078820;28;20569;-72
2022/12/01 00:36:56;;;;;;;45.70;25.10;;;;;;;;;;5078981;28;20468;-72
2022/12/01 00:39:23;;;;;;;49.47;26.30;;;;;;;;;;5077708;28;20484;-73
2022/12/01 00:41:51;;;;;;;48.80;23.87;;;;;;;;;;5079462;28;20448;-72
2022/12/01 00:44:18;;;;;;;44.43;25.73;;;;;;;;;;5078548;28;20453;-72
2022/12/01 00:46:45;;;;;;;51.90;28.73;;;;;;;;;;5078620;28;20452;-72
2022/12/01 00:49:15;;;;;;;45.70;25.00;;;;;;;;;;5079070;28;20448;-72
2022/12/01 00:51:42;;;;;;;50.23;27.23;;;;;;;;;;5078591;28;20460;-73
2022/12/01 00:54:09;;;;;;;45.40;26.10;;;;;;;;;;5079006;28;20453;-73
2022/12/01 00:56:36;;;;;;;51.80;26.30;;;;;;;;;;5079121;28;20687;-73
2022/12/01 00:59:04;;;;;;;46.17;25.40;;;;;;;;;;5078088;28;20529;-72
2022/12/01 01:01:31;;;;;;;53.20;26.70;;;;;;;;;;5078773;28;20572;-72
2022/12/01 01:03:58;;;;;;;48.17;26.70;;;;;;;;;;5078002;28;20551;-72
2022/12/01 01:06:29;;;;;;;44.20;25.63;;;;;;;;;;5078535;28;20464;-72
2022/12/01 01:08:55;;;;;;;47.10;26.60;;;;;;;;;;5078631;28;20535;-72
2022/12/01 01:11:22;;;;;;;59.10;28.00;;;;;;;;;;5078608;28;20872;-73
2022/12/01 01:13:49;;;;;;;51.77;26.93;;;;;;;;;;5077952;28;20445;-72
2022/12/01 01:16:18;;;;;;;48.43;26.33;;;;;;;;;;5078457;28;20517;-72
2022/12/01 01:18:45;;;;;;;55.17;29.63;;;;;;;;;;5078828;28;20460;-72
2022/12/01 01:21:13;;;;;;;53.07;24.70;;;;;;;;;;5078482;28;20457;-72
2022/12/01 01:23:41;;;;;;;47.63;26.70;;;;;;;;;;5077602;28;20536;-72
2022/12/01 01:26:11;;;;;;;45.03;24.60;;;;;;;;;;5078986;28;20453;-72
2022/12/01 01:28:40;;;;;;;54.83;28.83;;;;;;;;;;5077168;28;20460;-72
2022/12/01 01:31:11;;;;;;;50.77;27.27;;;;;;;;;;5078907;28;20517;-72
2022/12/01 01:33:39;;;;;;;53.70;26.30;;;;;;;;;;5078470;28;20488;-72
2022/12/01 01:36:06;;;;;;;46.67;25.40;;;;;;;;;;5077205;28;20513;-72
2022/12/01 01:38:33;;;;;;;47.03;25.73;;;;;;;;;;5078337;28;20467;-72
2022/12/01 01:41:01;;;;;;;51.77;25.60;;;;;;;;;;5077721;28;20498;-72
2022/12/01 01:43:42;;;;;;;51.57;26.77;;;;;;;;;;5077508;28;20463;-72
2022/12/01 01:46:11;;;;;;;47.33;25.63;;;;;;;;;;5077072;28;20822;-72
2022/12/01 01:48:41;;;;;;;49.33;27.17;;;;;;;;;;5077020;28;20559;-72
2022/12/01 01:51:08;;;;;;;52.80;28.27;;;;;;;;;;5077161;28;20496;-72
2022/12/01 01:53:38;;;;;;;48.90;27.20;;;;;;;;;;5077493;28;20613;-72
2022/12/01 01:56:06;;;;;;;48.10;25.83;;;;;;;;;;5077128;28;20470;-72
2022/12/01 01:58:34;;;;;;;49.90;26.10;;;;;;;;;;5077269;28;20456;-72
2022/12/01 02:01:01;;;;;;;46.00;25.63;;;;;;;;;;5077340;28;20484;-71
2022/12/01 02:03:28;;;;;;;46.30;24.40;;;;;;;;;;5078087;28;20844;-72
2022/12/01 02:05:59;;;;;;;43.40;25.10;;;;;;;;;;5077630;28;20455;-72
2022/12/01 02:08:26;;;;;;;44.37;24.03;;;;;;;;;;5076540;28;20500;-72
2022/12/01 02:11:04;;;;;;;47.47;24.40;;;;;;;;;;5078468;28;20514;-72
2022/12/01 02:13:33;;;;;;;46.53;23.30;;;;;;;;;;5076869;28;20452;-72
2022/12/01 02:16:04;;;;;;;49.87;25.97;;;;;;;;;;5077619;28;20868;-72
2022/12/01 02:18:34;;;;;;;45.90;26.87;;;;;;;;;;5076478;28;20459;-72
2022/12/01 02:21:19;;;;;;;50.13;25.23;;;;;;;;;;5076939;28;20930;-72
2022/12/01 02:24:07;;;;;;;54.27;26.00;;;;;;;;;;5077949;28;20456;-72
2022/12/01 02:26:39;;;;;;;49.73;24.50;;;;;;;;;;5076313;28;20452;-72
2022/12/01 02:29:13;;;;;;;49.80;24.37;;;;;;;;;;5077104;28;20448;-72
2022/12/01 02:31:47;;;;;;;46.53;24.60;;;;;;;;;;5076776;28;20868;-72
2022/12/01 02:34:15;;;;;;;62.63;25.87;;;;;;;;;;5076019;28;20785;-72
2022/12/01 02:36:47;;;;;;;60.90;25.37;;;;;;;;;;5085786;28;20455;-72
2022/12/01 02:39:25;;;;;;;47.90;25.30;;;;;;;;;;5096632;28;20487;-72
2022/12/01 02:41:54;;;;;;;56.20;27.50;;;;;;;;;;5097660;28;20793;-72
2022/12/01 02:44:32;;;;;;;59.73;26.60;;;;;;;;;;5097311;28;20831;-72
2022/12/01 02:47:06;;;;;;;56.67;25.30;;;;;;;;;;5077197;28;20521;-72
2022/12/01 02:49:35;;;;;;;60.57;28.47;;;;;;;;;;5076343;28;20630;-72
2022/12/01 02:52:05;;;;;;;55.80;27.07;;;;;;;;;;5076840;28;20494;-72
2022/12/01 02:54:33;;;;;;;56.67;27.50;;;;;;;;;;5076077;28;20686;-71
2022/12/01 02:57:00;;;;;;;53.67;26.23;;;;;;;;;;5076388;28;20857;-72
2022/12/01 02:59:27;;;;;;;53.40;27.37;;;;;;;;;;5076037;28;20541;-72
2022/12/01 03:02:01;;;;;;;58.23;26.53;;;;;;;;;;5076712;28;20456;-72
2022/12/01 03:04:40;;;;;;;56.67;25.80;;;;;;;;;;5076772;28;20459;-72
2022/12/01 03:07:14;;;;;;;54.87;25.77;;;;;;;;;;5075678;28;20475;-72
2022/12/01 03:09:46;;;;;;;61.50;26.00;;;;;;;;;;5076507;28;20452;-72
2022/12/01 03:12:17;;;;;;;50.67;27.17;;;;;;;;;;5076399;28;20449;-72
2022/12/01 03:14:46;;;;;;;65.53;28.37;;;;;;;;;;5075951;28;20514;-72
2022/12/01 03:17:16;;;;;;;54.37;25.70;;;;;;;;;;5076470;28;20463;-72
2022/12/01 03:19:46;;;;;;;62.50;25.93;;;;;;;;;;5075932;28;20485;-72
2022/12/01 03:22:21;;;;;;;53.57;26.43;;;;;;;;;;5076375;28;20510;-72
2022/12/01 03:24:49;;;;;;;54.00;28.20;;;;;;;;;;5076626;28;20478;-72
2022/12/01 03:27:18;;;;;;;53.77;27.57;;;;;;;;;;5075616;28;20543;-72
2022/12/01 03:29:51;;;;;;;65.77;26.73;;;;;;;;;;5075718;28;20877;-72
2022/12/01 03:32:20;;;;;;;56.60;25.23;;;;;;;;;;5075435;28;20484;-72
2022/12/01 03:34:51;;;;;;;59.43;27.13;;;;;;;;;;5076674;28;20521;-72
2022/12/01 03:37:20;;;;;;;66.50;26.87;;;;;;;;;;5075977;28;20523;-72
2022/12/01 03:39:48;;;;;;;58.73;28.37;;;;;;;;;;5085048;28;20490;-72
2022/12/01 03:42:17;;;;;;;56.20;25.83;;;;;;;;;;5097247;28;20452;-72
2022/12/01 03:44:46;;;;;;;60.47;25.60;;;;;;;;;;5096191;28;20460;-72
2022/12/01 03:47:15;;;;;;;71.27;29.50;;;;;;;;;;5095461;28;20447;-72
2022/12/01 03:49:43;;;;;;;72.17;28.70;;;;;;;;;;5095838;28;20534;-72
2022/12/01 03:52:16;;;;;;;68.33;29.27;;;;;;;;;;5096206;28;20504;-72
2022/12/01 03:54:49;;;;;;;72.73;28.23;;;;;;;;;;5096437;28;20634;-72
2022/12/01 03:57:19;;;;;;;65.43;28.60;;;;;;;;;;5095897;28;20476;-72
2022/12/01 03:59:46;;;;;;;69.37;30.03;;;;;;;;;;5095410;28;20552;-72
2022/12/01 04:02:13;;;;;;;61.00;26.97;;;;;;;;;;5095171;28;20443;-71
2022/12/01 04:04:40;;;;;;;66.33;28.90;;;;;;;;;;5095688;28;20466;-72
2022/12/01 04:07:12;;;;;;;53.47;26.63;;;;;;;;;;5096373;28;20455;-72
2022/12/01 04:09:40;;;;;;;58.03;25.70;;;;;;;;;;5095561;28;20459;-72
2022/12/01 04:14:53;;;;;;;66.40;28.30;;;;;;;;;;5096469;28;20450;-72
2022/12/01 04:17:19;;;;;;;80.30;28.30;;;;;;;;;;5096210;28;20458;-72
2022/12/01 04:19:47;;;;;;;56.77;27.40;;;;;;;;;;5096710;28;20480;-72
2022/12/01 04:22:14;;;;;;;64.27;29.73;;;;;;;;;;5097787;28;20454;-73
2022/12/01 04:24:41;;;;;;;68.83;28.07;;;;;;;;;;5098574;28;20444;-72
2022/12/01 04:27:08;;;;;;;65.37;27.97;;;;;;;;;;5098778;28;20474;-72
2022/12/01 04:29:38;;;;;;;51.33;23.00;;;;;;;;;;5097510;28;20452;-72
2022/12/01 04:32:07;;;;;;;62.33;26.13;;;;;;;;;;5100533;28;20550;-72
2022/12/01 04:34:34;;;;;;;61.93;22.70;;;;;;;;;;5084113;28;20515;-72
2022/12/01 04:37:02;;;;;;;47.83;21.77;;;;;;;;;;5079085;28;20456;-72
2022/12/01 04:39:32;;;;;;;47.43;23.30;;;;;;;;;;5079563;28;20488;-72
2022/12/01 04:42:00;;;;;;;60.23;24.37;;;;;;;;;;5079533;28;20542;-72
2022/12/01 04:44:27;;;;;;;40.37;22.47;;;;;;;;;;5078385;28;20456;-73
2022/12/01 04:46:55;;;;;;;46.77;22.33;;;;;;;;;;5078480;28;20474;-72
2022/12/01 04:49:24;;;;;;;44.67;21.90;;;;;;;;;;5078107;28;20525;-72
2022/12/01 04:51:53;;;;;;;47.13;24.30;;;;;;;;;;5079033;28;20701;-72
2022/12/01 04:54:21;;;;;;;43.63;20.13;;;;;;;;;;5078955;28;20448;-72
2022/12/01 04:56:48;;;;;;;51.40;22.93;;;;;;;;;;5078803;28;20763;-72
2022/12/01 04:59:16;;;;;;;50.53;24.17;;;;;;;;;;5079016;28;20853;-72
2022/12/01 05:01:43;;;;;;;48.40;23.80;;;;;;;;;;5078099;28;20500;-72
2022/12/01 05:04:11;;;;;;;44.93;19.00;;;;;;;;;;5078816;28;20513;-71
2022/12/01 05:06:39;;;;;;;44.40;22.77;;;;;;;;;;5079168;28;20555;-71
2022/12/01 05:09:06;;;;;;;57.40;23.33;;;;;;;;;;5078462;28;20533;-72
2022/12/01 05:11:33;;;;;;;42.30;20.27;;;;;;;;;;5079257;28;20475;-72
2022/12/01 05:14:00;;;;;;;41.60;19.10;;;;;;;;;;5077658;28;20449;-72
2022/12/01 05:16:32;;;;;;;50.97;23.60;;;;;;;;;;5078971;28;20456;-72
2022/12/01 05:21:45;;;;;;;51.73;22.53;;;;;;;;;;5036746;28;20447;-72
2022/12/01 05:24:15;;;;;;;57.23;21.30;;;;;;;;;;5077914;28;20480;-71
2022/12/01 05:26:52;;;;;;;45.37;21.47;;;;;;;;;;5076823;28;20460;-72
2022/12/01 05:29:21;;;;;;;46.17;21.07;;;;;;;;;;5077806;28;20521;-71
2022/12/01 05:31:49;;;;;;;43.23;21.07;;;;;;;;;;5076960;28;20452;-71
2022/12/01 05:34:17;;;;;;;48.70;21.60;;;;;;;;;;5076428;28;20456;-71
2022/12/01 05:36:44;;;;;;;41.57;21.67;;;;;;;;;;5090253;28;20468;-71
2022/12/01 05:39:11;;;;;;;45.37;21.83;;;;;;;;;;5096284;28;20452;-72
2022/12/01 05:41:38;;;;;;;58.30;24.30;;;;;;;;;;5096484;28;20471;-73
2022/12/01 05:44:07;;;;;;;46.33;21.20;;;;;;;;;;5096928;28;20464;-72
2022/12/01 05:46:34;;;;;;;51.23;20.97;;;;;;;;;;5094775;28;20490;-72
2022/12/01 05:49:02;;;;;;;56.50;21.43;;;;;;;;;;5096852;28;20464;-72
2022/12/01 05:51:29;;;;;;;52.20;20.93;;;;;;;;;;5096673;28;20459;-73
2022/12/01 05:53:56;;;;;;;54.03;23.80;;;;;;;;;;5093150;28;20739;-72
2022/12/01 05:56:23;;;;;;;54.10;23.37;;;;;;;;;;5075764;28;20517;-71
2022/12/01 05:58:50;;;;;;;51.60;22.00;;;;;;;;;;5076723;28;20967;-73
2022/12/01 06:01:17;;;;;;;48.97;22.90;;;;;;;;;;5076042;28;21106;-72
2022/12/01 06:03:45;;;;;;;53.13;22.30;;;;;;;;;;5077572;28;20523;-73
2022/12/01 06:06:13;;;;;;;49.20;21.40;;;;;;;;;;5076565;28;20453;-70
2022/12/01 06:08:40;;;;;;;50.27;20.97;;;;;;;;;;5081823;28;20543;-72
2022/12/01 06:11:07;;;;;;;46.57;20.57;;;;;;;;;;5084177;28;20745;-72
2022/12/01 06:13:34;;;;;;;45.43;20.83;;;;;;;;;;5093553;28;20451;-73
2022/12/01 06:16:05;;;;;;;52.70;21.40;;;;;;;;;;5095546;28;20459;-72
2022/12/01 06:18:33;;;;;;;54.27;20.67;;;;;;;;;;5095781;28;20458;-72
2022/12/01 06:21:00;;;;;;;53.33;24.77;;;;;;;;;;5077954;28;20579;-72
2022/12/01 06:23:31;;;;;;;47.77;20.80;;;;;;;;;;5074607;28;20455;-72
2022/12/01 06:26:01;;;;;;;50.50;20.53;;;;;;;;;;5073918;28;20464;-71
2022/12/01 06:28:32;;;;;;;48.60;22.20;;;;;;;;;;5075304;28;20449;-72
2022/12/01 06:31:00;;;;;;;46.20;20.83;;;;;;;;;;5078246;28;20479;-71
2022/12/01 06:33:27;;;;;;;51.83;20.20;;;;;;;;;;5095281;28;20444;-71
2022/12/01 06:35:58;;;;;;;51.17;20.53;;;;;;;;;;5094160;28;20443;-71
2022/12/01 06:38:25;;;;;;;53.67;23.63;;;;;;;;;;5092110;28;20448;-72
2022/12/01 06:40:53;;;;;;;50.27;19.40;;;;;;;;;;5092873;28;20483;-72
2022/12/01 06:43:24;;;;;;;52.80;20.57;;;;;;;;;;5088461;28;20458;-71
2022/12/01 06:45:51;;;;;;;44.50;19.23;;;;;;;;;;5080185;28;20449;-70
2022/12/01 06:48:19;;;;;;;43.57;19.23;;;;;;;;;;5081084;28;20458;-70
2022/12/01 06:50:50;;;;;;;49.40;20.90;;;;;;;;;;5093572;28;20521;-71
2022/12/01 06:53:28;;;;;;;47.90;18.80;;;;;;;;;;5089318;28;20449;-71
2022/12/01 06:56:01;;;;;;;50.97;21.23;;;;;;;;;;5095632;28;20451;-72
2022/12/01 06:58:30;;;;;;;51.30;21.90;;;;;;;;;;5095307;28;20435;-72
2022/12/01 07:01:01;;;;;;;45.17;21.07;;;;;;;;;;5078626;28;20484;-72
2022/12/01 07:03:29;;;;;;;52.63;21.60;;;;;;;;;;5085339;28;20512;-71
2022/12/01 07:06:04;;;;;;;58.00;22.50;;;;;;;;;;5094554;28;20766;-70
2022/12/01 07:08:33;;;;;;;52.40;21.77;;;;;;;;;;5093094;28;20549;-72
2022/12/01 07:11:02;;;;;;;43.33;19.77;;;;;;;;;;5092294;28;20474;-72
2022/12/01 07:13:38;;;;;;;62.43;24.23;;;;;;;;;;5084967;28;20930;-72
2022/12/01 07:16:07;;;;;;;50.83;22.23;;;;;;;;;;5074468;28;20452;-72
2022/12/01 07:18:51;;;;;;;49.53;23.17;;;;;;;;;;5094283;28;20460;-72
2022/12/01 07:21:18;;;;;;;50.17;21.87;;;;;;;;;;5092143;28;21066;-71
2022/12/01 07:23:45;;;;;;;60.33;20.20;;;;;;;;;;5093754;28;20487;-71
2022/12/01 07:26:15;;;;;;;47.03;18.87;;;;;;;;;;5094635;28;20495;-72
2022/12/01 07:28:42;;;;;;;49.80;21.07;;;;;;;;;;5089909;28;20468;-72
2022/12/01 07:31:11;;;;;;;55.43;22.77;;;;;;;;;;5087659;28;20950;-72
2022/12/01 07:33:58;;;;;;;50.70;19.87;;;;;;;;;;5085733;28;20471;-73
2022/12/01 07:36:25;;;;;;;45.33;19.13;;;;;;;;;;5088160;28;20468;-71
2022/12/01 07:38:59;;;;;;;42.47;19.30;;;;;;;;;;5088149;28;20462;-71
2022/12/01 07:41:29;;;;;;;46.67;19.13;;;;;;;;;;5091722;28;20771;-72
2022/12/01 07:43:59;;;;;;;48.17;20.27;;;;;;;;;;5093018;28;20527;-72
2022/12/01 07:46:28;;;;;;;47.07;20.03;;;;;;;;;;5081318;28;20495;-72
2022/12/01 07:49:02;;;;;;;52.57;18.57;;;;;;;;;;5090020;28;20480;-72
2022/12/01 07:51:29;;;;;;;45.47;20.30;;;;;;;;;;5086003;28;20471;-73
2022/12/01 07:54:03;;;;;;;37.57;18.07;;;;;;;;;;5075860;28;20757;-72
2022/12/01 07:56:31;;;;;;;37.17;16.57;;;;;;;;;;5079467;28;20459;-70
2022/12/01 07:59:03;;;;;;;50.60;19.93;;;;;;;;;;5093088;28;20483;-70
2022/12/01 08:01:34;;;;;;;43.60;20.30;;;;;;;;;;5088095;28;20501;-70
2022/12/01 08:04:04;;;;;;;46.17;20.27;;;;;;;;;;5088107;28;20456;-70
2022/12/01 08:06:31;;;;;;;45.13;21.03;;;;;;;;;;5084430;28;20482;-70
2022/12/01 08:08:58;;;;;;;38.83;17.90;;;;;;;;;;5080476;28;20463;-70
2022/12/01 08:11:28;;;;;;;39.00;17.00;;;;;;;;;;5089871;28;20522;-70
2022/12/01 08:13:56;;;;;;;44.80;18.40;;;;;;;;;;5088992;28;20477;-70
2022/12/01 08:16:25;;;;;;;39.17;17.20;;;;;;;;;;5081063;28;20468;-71
2022/12/01 08:18:53;;;;;;;39.50;16.50;;;;;;;;;;5085296;28;20452;-72
2022/12/01 08:21:23;;;;;;;37.13;17.13;;;;;;;;;;5077426;28;21419;-72
2022/12/01 08:23:53;;;;;;;33.27;17.33;;;;;;;;;;5091677;28;20456;-70
2022/12/01 08:26:23;;;;;;;44.20;17.30;;;;;;;;;;5078979;28;20463;-71
2022/12/01 08:28:57;;;;;;;35.23;15.23;;;;;;;;;;5088244;28;20468;-71
2022/12/01 08:31:26;;;;;;;29.93;15.83;;;;;;;;;;5080203;28;20907;-72
2022/12/01 08:33:54;;;;;;;29.03;15.10;;;;;;;;;;5078325;28;20543;-71
2022/12/01 08:36:21;;;;;;;39.70;16.73;;;;;;;;;;5087578;28;20459;-71
2022/12/01 08:38:50;;;;;;;31.93;13.00;;;;;;;;;;5083415;28;20505;-71
2022/12/01 08:41:17;;;;;;;26.83;13.03;;;;;;;;;;5086182;28;20559;-71
2022/12/01 08:43:45;;;;;;;30.23;14.60;;;;;;;;;;5084222;28;20459;-71
2022/12/01 08:46:17;;;;;;;32.00;14.70;;;;;;;;;;5084968;28;20459;-71
2022/12/01 08:48:45;;;;;;;30.07;13.00;;;;;;;;;;5087780;28;20512;-71
2022/12/01 08:51:13;;;;;;;26.43;13.73;;;;;;;;;;5090867;28;20468;-71
2022/12/01 08:53:46;;;;;;;30.43;13.23;;;;;;;;;;5086006;28;20456;-70
2022/12/01 08:56:25;;;;;;;33.60;14.90;;;;;;;;;;5087168;28;20462;-72
2022/12/01 08:58:52;;;;;;;26.87;12.67;;;;;;;;;;5090393;28;20460;-72
2022/12/01 09:01:19;;;;;;;26.73;12.73;;;;;;;;;;5080829;28;20483;-71
2022/12/01 09:03:47;;;;;;;30.83;14.00;;;;;;;;;;5085897;28;20471;-71
2022/12/01 09:06:15;;;;;;;27.10;12.20;;;;;;;;;;5076980;28;20472;-72
2022/12/01 09:08:45;;;;;;;37.27;16.80;;;;;;;;;;5090952;28;20760;-71
2022/12/01 09:11:14;;;;;;;30.37;14.13;;;;;;;;;;5081067;28;20883;-71
2022/12/01 09:13:42;;;;;;;27.97;13.07;;;;;;;;;;5079779;28;20582;-71
2022/12/01 09:16:11;;;;;;;31.07;15.33;;;;;;;;;;5081230;28;20457;-71
2022/12/01 09:18:42;;;;;;;24.07;13.40;;;;;;;;;;5084261;28;20455;-72
2022/12/01 09:21:22;;;;;;;33.00;12.30;;;;;;;;;;5089143;28;20471;-72
2022/12/01 09:23:54;;;;;;;33.00;15.90;;;;;;;;;;5079661;28;20487;-72
2022/12/01 09:26:29;;;;;;;30.30;15.23;;;;;;;;;;5088031;28;20809;-72
2022/12/01 09:29:05;;;;;;;30.30;14.63;;;;;;;;;;5082425;28;20472;-71
2022/12/01 09:31:36;;;;;;;31.10;13.40;;;;;;;;;;5078221;28;20458;-72
2022/12/01 09:34:04;;;;;;;40.20;18.07;;;;;;;;;;5085253;28;20468;-71
2022/12/01 09:36:42;;;;;;;40.67;15.90;;;;;;;;;;5082933;28;20455;-72
2022/12/01 09:39:15;;;;;;;33.37;16.23;;;;;;;;;;5082363;28;20472;-71
2022/12/01 09:41:44;;;;;;;31.57;12.77;;;;;;;;;;5081748;28;20485;-72
2022/12/01 09:44:29;;;;;;;56.60;22.73;;;;;;;;;;5084881;28;20468;-73
2022/12/01 09:46:57;;;;;;;32.20;13.97;;;;;;;;;;5092854;28;20538;-72
2022/12/01 09:49:27;;;;;;;42.70;18.10;;;;;;;;;;5088436;28;20459;-72
2022/12/01 09:52:05;;;;;;;42.20;16.30;;;;;;;;;;5081431;28;20459;-72
2022/12/01 09:54:32;;;;;;;44.67;16.37;;;;;;;;;;5081531;28;20484;-71
2022/12/01 09:56:59;;;;;;;52.77;21.77;;;;;;;;;;5085619;28;20539;-72
2022/12/01 09:59:33;;;;;;;55.43;23.93;;;;;;;;;;5081914;28;20472;-71
2022/12/01 10:05:15;;;;;;;51.13;19.20;;;;;;;;;;5086800;28;20506;-71
2022/12/01 10:07:53;;;;;;;50.57;20.97;;;;;;;;;;5074884;28;20511;-71
2022/12/01 10:10:25;;;;;;;43.33;16.67;;;;;;;;;;5083439;28;20468;-70
2022/12/01 10:13:23;;;;;;;49.73;19.13;;;;;;;;;;5085702;28;20547;-71
2022/12/01 10:15:56;;;;;;;41.70;18.40;;;;;;;;;;5089779;28;20857;-71
2022/12/01 10:18:33;;;;;;;66.03;24.73;;;;;;;;;;5092815;28;20464;-71
2022/12/01 10:21:17;;;;;;;51.67;20.77;;;;;;;;;;5078789;28;20579;-72
2022/12/01 10:24:07;;;;;;;56.83;21.27;;;;;;;;;;5084279;28;20478;-71
2022/12/01 10:26:38;;;;;;;56.50;18.07;;;;;;;;;;5076778;28;20460;-72
2022/12/01 10:29:11;;;;;;;52.67;19.53;;;;;;;;;;5075062;28;20469;-71
2022/12/01 10:31:46;;;;;;;47.50;19.67;;;;;;;;;;5075749;28;20493;-70
2022/12/01 10:34:16;;;;;;;44.40;19.73;;;;;;;;;;5077649;28;20514;-72
2022/12/01 10:36:43;;;;;;;46.23;19.47;;;;;;;;;;5072991;28;21079;-72
2022/12/01 10:39:22;;;;;;;53.30;20.43;;;;;;;;;;5082487;28;20459;-72
2022/12/01 10:41:50;;;;;;;62.43;20.17;;;;;;;;;;5080613;28;20491;-72
2022/12/01 10:44:19;;;;;;;51.77;20.90;;;;;;;;;;5089993;28;20474;-72
2022/12/01 10:46:49;;;;;;;47.30;19.10;;;;;;;;;;5082428;28;20640;-72
2022/12/01 10:49:21;;;;;;;44.10;18.27;;;;;;;;;;5080040;28;20522;-72
2022/12/01 10:51:58;;;;;;;57.97;17.93;;;;;;;;;;5082328;28;20474;-72
2022/12/01 10:54:32;;;;;;;54.23;18.40;;;;;;;;;;5087049;28;20910;-72
2022/12/01 10:57:04;;;;;;;54.17;18.17;;;;;;;;;;5072884;28;20732;-72
2022/12/01 10:59:40;;;;;;;43.43;19.27;;;;;;;;;;5088814;28;20556;-72
2022/12/01 11:02:15;;;;;;;71.97;20.00;;;;;;;;;;5080430;28;20479;-71
2022/12/01 11:04:48;;;;;;;50.13;18.13;;;;;;;;;;5083791;28;20478;-71
2022/12/01 11:07:21;;;;;;;62.37;21.90;;;;;;;;;;5073090;28;20491;-71
2022/12/01 11:10:13;;;;;;;49.60;21.63;;;;;;;;;;5072012;28;20522;-72
2022/12/01 11:13:03;;;;;;;52.10;19.90;;;;;;;;;;5067998;28;20467;-71
2022/12/01 11:15:44;;;;;;;70.20;23.00;;;;;;;;;;5085267;28;20518;-71
2022/12/01 11:18:29;;;;;;;48.27;22.23;;;;;;;;;;5086085;28;20890;-71
2022/12/01 11:21:09;;;;;;;52.70;20.43;;;;;;;;;;5097580;28;20751;-71
2022/12/01 11:23:38;;;;;;;68.00;18.90;;;;;;;;;;5087358;28;20467;-72
2022/12/01 11:26:19;;;;;;;51.97;18.43;;;;;;;;;;5082618;28;20493;-71
2022/12/01 11:28:53;;;;;;;56.37;17.60;;;;;;;;;;5085562;28;20467;-71
2022/12/01 11:31:37;;;;;;;55.53;14.83;;;;;;;;;;5090826;28;20466;-72
2022/12/01 11:34:05;;;;;;;45.40;17.20;;;;;;;;;;5092786;28;20466;-71
2022/12/01 11:36:34;;;;;;;53.63;18.30;;;;;;;;;;5084258;28;20463;-72
2022/12/01 11:39:04;;;;;;;50.43;17.87;;;;;;;;;;5088382;28;20463;-72
2022/12/01 11:41:33;;;;;;;54.53;18.87;;;;;;;;;;5096001;28;20475;-72
2022/12/01 11:44:05;;;;;;;51.07;18.83;;;;;;;;;;5094151;28;20459;-71
2022/12/01 11:46:55;;;;;;;62.57;22.53;;;;;;;;;;5086667;28;20460;-72
2022/12/01 11:49:32;;;;;;;66.93;19.20;;;;;;;;;;5089644;28;20544;-72
2022/12/01 11:55:22;;;;;;;44.93;17.10;;;;;;;;;;5083535;28;20567;-72
2022/12/01 11:57:59;;;;;;;52.20;18.20;;;;;;;;;;5095093;28;20512;-71
2022/12/01 12:00:53;;;;;;;45.97;18.60;;;;;;;;;;5094642;28;20736;-71
2022/12/01 12:03:50;;;;;;;;;;;;;;;;;;;;;
2022/12/01 12:06:23;;;;;;;53.87;18.77;;;;;;;;;;5079231;28;20464;-71
2022/12/01 12:09:02;;;;;;;36.77;15.50;;;;;;;;;;5076441;28;20882;-71
2022/12/01 12:11:34;;;;;;;189.27;76.53;;;;;;;;;;5083003;28;20753;-71
2022/12/01 12:14:32;;;;;;;52.83;22.23;;;;;;;;;;5076156;28;20513;-71
2022/12/01 12:17:15;;;;;;;46.23;16.30;;;;;;;;;;5072632;28;20456;-72
2022/12/01 12:19:51;;;;;;;32.07;13.43;;;;;;;;;;5079809;28;20456;-72
2022/12/01 12:22:27;;;;;;;43.83;15.50;;;;;;;;;;5082754;28;20738;-72
2022/12/01 12:25:01;;;;;;;52.40;14.87;;;;;;;;;;5085127;28;20462;-72
2022/12/01 12:27:38;;;;;;;50.83;15.90;;;;;;;;;;5083211;28;20614;-72
2022/12/01 12:30:12;;;;;;;56.87;19.70;;;;;;;;;;5075088;28;20464;-72
2022/12/01 12:32:50;;;;;;;51.70;16.57;;;;;;;;;;5074663;28;20452;-72
2022/12/01 12:35:36;;;;;;;54.20;17.63;;;;;;;;;;5080058;28;20443;-72
2022/12/01 12:38:15;;;;;;;46.33;15.17;;;;;;;;;;5092135;28;20464;-72
2022/12/01 12:40:48;;;;;;;49.50;15.07;;;;;;;;;;5085578;28;20517;-72
2022/12/01 12:43:23;;;;;;;47.30;16.70;;;;;;;;;;5076030;28;20559;-72
2022/12/01 12:45:58;;;;;;;49.63;16.60;;;;;;;;;;5074379;28;20816;-72
2022/12/01 12:48:33;;;;;;;157.30;52.73;;;;;;;;;;5083387;28;20480;-72
2022/12/01 12:51:07;;;;;;;47.90;17.10;;;;;;;;;;5077725;28;20463;-71
2022/12/01 12:53:50;;;;;;;42.30;15.03;;;;;;;;;;5089271;28;20454;-71
2022/12/01 12:56:19;;;;;;;41.57;15.27;;;;;;;;;;5081606;28;20626;-71
2022/12/01 12:59:03;;;;;;;54.27;15.73;;;;;;;;;;5094556;28;20627;-73
2022/12/01 13:01:32;;;;;;;55.43;18.17;;;;;;;;;;5091640;28;20518;-74
2022/12/01 13:07:10;;;;;;;50.57;18.07;;;;;;;;;;5080273;28;20470;-73
2022/12/01 13:09:55;;;;;;;36.70;11.97;;;;;;;;;;5075205;28;20507;-72
2022/12/01 13:12:26;;;;;;;47.00;14.67;;;;;;;;;;5073347;28;20491;-73
2022/12/01 13:15:12;;;;;;;62.03;23.77;;;;;;;;;;5079615;28;20539;-73
2022/12/01 13:17:43;;;;;;;38.20;17.20;;;;;;;;;;5093682;28;20478;-74
2022/12/01 13:20:19;;;;;;;43.17;16.97;;;;;;;;;;5086984;28;20472;-73
2022/12/01 13:22:49;;;;;;;46.37;17.00;;;;;;;;;;5090378;28;20538;-73
2022/12/01 13:25:37;;;;;;;44.77;14.50;;;;;;;;;;5086678;28;20456;-73
2022/12/01 13:28:17;;;;;;;44.93;14.50;;;;;;;;;;5082818;28;20534;-75
2022/12/01 13:30:57;;;;;;;41.97;13.43;;;;;;;;;;5088481;28;21140;-74
2022/12/01 13:33:26;;;;;;;39.07;15.20;;;;;;;;;;5081085;28;20467;-73
2022/12/01 13:35:54;;;;;;;38.67;14.53;;;;;;;;;;5073337;28;20452;-73
2022/12/01 13:38:29;;;;;;;40.67;14.27;;;;;;;;;;5085273;28;20765;-73
2022/12/01 13:41:18;;;;;;;38.10;13.00;;;;;;;;;;5086039;28;20482;-74
2022/12/01 13:43:50;;;;;;;53.30;14.50;;;;;;;;;;5084572;28;20555;-73
2022/12/01 13:46:22;;;;;;;44.57;14.83;;;;;;;;;;5086632;28;20518;-74
2022/12/01 13:48:52;;;;;;;26.90;12.17;;;;;;;;;;5086414;28;20524;-73
2022/12/01 13:51:19;;;;;;;55.00;24.00;;;;;;;;;;5091375;28;20463;-73
2022/12/01 13:54:04;;;;;;;35.53;15.30;;;;;;;;;;5074049;28;20761;-74
2022/12/01 13:56:41;;;;;;;41.63;15.80;;;;;;;;;;5080720;28;20540;-73
2022/12/01 13:59:26;;;;;;;38.27;14.87;;;;;;;;;;5077970;28;20478;-74
2022/12/01 14:02:07;;;;;;;34.97;13.70;;;;;;;;;;5083836;28;20544;-74
2022/12/01 14:04:53;;;;;;;33.80;13.67;;;;;;;;;;5092753;28;20516;-74
2022/12/01 14:07:38;;;;;;;31.90;11.87;;;;;;;;;;5094578;28;20761;-73
2022/12/01 14:10:18;;;;;;;46.83;14.63;;;;;;;;;;5091414;28;20463;-74
2022/12/01 14:12:53;;;;;;;38.97;15.63;;;;;;;;;;5092562;28;20483;-74
2022/12/01 14:15:34;;;;;;;43.00;17.30;;;;;;;;;;5093790;28;20458;-74
2022/12/01 14:18:09;;;;;;;42.43;18.03;;;;;;;;;;5090502;28;20871;-74
2022/12/01 14:20:52;;;;;;;38.93;17.33;;;;;;;;;;5092915;28;20479;-74
2022/12/01 14:23:23;;;;;;;48.23;16.23;;;;;;;;;;5094471;28;20471;-74
2022/12/01 14:25:58;;;;;;;29.60;14.10;;;;;;;;;;5091858;28;20492;-73
2022/12/01 14:28:40;;;;;;;44.10;16.67;;;;;;;;;;5090882;28;20461;-73
2022/12/01 14:31:17;;;;;;;42.57;16.30;;;;;;;;;;5073109;28;20748;-74
2022/12/01 14:33:55;;;;;;;44.10;17.60;;;;;;;;;;5080026;28;20490;-74
2022/12/01 14:36:55;;;;;;;;;;;;;;;;;;;;;
2022/12/01 14:39:28;;;;;;;52.67;16.80;;;;;;;;;;5086515;28;20455;-74
2022/12/01 14:41:57;;;;;;;38.20;15.70;;;;;;;;;;5087598;28;20582;-74
2022/12/01 14:44:34;;;;;;;38.00;17.63;;;;;;;;;;5088408;28;20451;-74
2022/12/01 14:47:16;;;;;;;51.43;18.13;;;;;;;;;;5094193;28;20471;-73
2022/12/01 14:49:51;;;;;;;43.40;17.87;;;;;;;;;;5091293;28;20529;-72
2022/12/01 14:52:24;;;;;;;41.57;14.90;;;;;;;;;;5089570;28;20610;-72
2022/12/01 14:54:52;;;;;;;43.13;17.33;;;;;;;;;;5096445;28;20447;-72
2022/12/01 14:57:35;;;;;;;40.60;15.27;;;;;;;;;;5077388;28;20457;-73
2022/12/01 15:00:09;;;;;;;40.73;16.13;;;;;;;;;;5080962;28;20549;-73
2022/12/01 15:03:16;;;;;;;60.97;25.33;;;;;;;;;;5083904;28;20466;-73
2022/12/01 15:05:55;;;;;;;56.27;20.33;;;;;;;;;;5087043;28;20550;-73